createdAt,value
2017-12-11T00:00:15.276Z,57.36
2017-12-11T00:01:17.745Z,57.65
2017-12-11T00:02:20.237Z,57.67
2017-12-11T00:03:22.694Z,57.71
2017-12-11T00:04:25.198Z,57.59
2017-12-11T00:05:27.665Z,57.49
2017-12-11T00:06:30.140Z,57.25
2017-12-11T00:07:32.605Z,57.25
2017-12-11T00:08:35.068Z,57.19
2017-12-11T00:09:37.561Z,57.23
2017-12-11T00:10:40.051Z,57.27
2017-12-11T00:11:42.521Z,57.24
2017-12-11T00:12:44.982Z,57.50
2017-12-11T00:13:47.456Z,57.45
2017-12-11T00:14:49.918Z,57.47
2017-12-11T00:15:52.467Z,57.47
2017-12-11T00:16:54.941Z,57.57
2017-12-11T00:17:57.404Z,57.60
2017-12-11T00:18:59.880Z,57.72
2017-12-11T00:20:02.344Z,57.73
2017-12-11T00:21:04.816Z,57.71
2017-12-11T00:22:07.298Z,57.70
2017-12-11T00:23:09.852Z,57.73
2017-12-11T00:24:12.328Z,57.69
2017-12-11T00:25:14.808Z,57.75
2017-12-11T00:26:17.267Z,57.67
2017-12-11T00:27:19.723Z,57.67
2017-12-11T00:28:22.198Z,57.79
2017-12-11T00:29:24.670Z,57.88
2017-12-11T00:30:27.122Z,57.92
2017-12-11T00:31:29.582Z,57.97
2017-12-11T00:32:32.046Z,58.03
2017-12-11T00:33:34.512Z,58.02
2017-12-11T00:34:36.973Z,57.99
2017-12-11T00:35:39.448Z,58.16
2017-12-11T00:36:41.904Z,58.16
2017-12-11T00:37:44.371Z,58.26
2017-12-11T00:38:46.834Z,58.30
2017-12-11T00:39:49.301Z,58.38
2017-12-11T00:40:51.754Z,58.41
2017-12-11T00:41:54.210Z,58.41
2017-12-11T00:42:56.662Z,58.49
2017-12-11T00:43:59.114Z,58.51
2017-12-11T00:45:01.589Z,58.49
2017-12-11T00:46:04.056Z,58.58
2017-12-11T00:47:06.512Z,58.61
2017-12-11T00:48:08.985Z,58.60
2017-12-11T00:49:11.438Z,58.62
2017-12-11T00:50:13.890Z,58.62
2017-12-11T00:51:16.342Z,58.64
2017-12-11T00:52:18.800Z,58.64
2017-12-11T00:53:21.266Z,58.65
2017-12-11T00:54:23.733Z,58.69
2017-12-11T00:55:26.196Z,58.72
2017-12-11T00:56:28.660Z,58.75
2017-12-11T00:57:31.136Z,58.76
2017-12-11T00:58:33.608Z,58.78
2017-12-11T00:59:36.072Z,58.80
2017-12-11T01:00:38.526Z,58.79
2017-12-11T01:01:41.034Z,58.81
2017-12-11T01:02:43.468Z,58.83
2017-12-11T01:03:45.924Z,58.80
2017-12-11T01:04:48.381Z,58.92
2017-12-11T01:05:50.837Z,58.88
2017-12-11T01:06:53.305Z,58.89
2017-12-11T01:07:55.762Z,58.88
2017-12-11T01:08:58.229Z,58.93
2017-12-11T01:10:00.678Z,58.96
2017-12-11T01:11:03.141Z,59.00
2017-12-11T01:12:05.640Z,58.97
2017-12-11T01:13:08.106Z,59.00
2017-12-11T01:14:10.575Z,58.98
2017-12-11T01:15:13.185Z,59.01
2017-12-11T01:16:15.635Z,59.01
2017-12-11T01:17:18.113Z,59.01
2017-12-11T01:18:20.582Z,59.00
2017-12-11T01:19:23.030Z,59.07
2017-12-11T01:20:25.497Z,59.14
2017-12-11T01:21:27.951Z,59.17
2017-12-11T01:22:30.420Z,59.22
2017-12-11T01:23:32.884Z,59.22
2017-12-11T01:24:35.339Z,59.17
2017-12-11T01:25:37.810Z,59.05
2017-12-11T01:26:40.266Z,58.97
2017-12-11T01:27:42.758Z,58.96
2017-12-11T01:28:45.210Z,59.16
2017-12-11T01:29:47.662Z,59.17
2017-12-11T01:30:50.114Z,59.15
2017-12-11T01:31:52.585Z,59.17
2017-12-11T01:32:55.061Z,59.20
2017-12-11T01:33:57.519Z,59.23
2017-12-11T01:34:59.965Z,59.33
2017-12-11T01:36:02.421Z,59.42
2017-12-11T01:37:04.965Z,59.47
2017-12-11T01:38:07.418Z,59.47
2017-12-11T01:39:09.870Z,59.52
2017-12-11T01:40:12.337Z,59.60
2017-12-11T01:41:14.804Z,59.70
2017-12-11T01:42:17.251Z,59.68
2017-12-11T01:43:19.714Z,59.62
2017-12-11T01:44:22.180Z,59.62
2017-12-11T01:45:24.654Z,59.70
2017-12-11T01:46:27.114Z,59.78
2017-12-11T01:47:29.570Z,59.96
2017-12-11T01:48:32.034Z,59.87
2017-12-11T01:49:34.485Z,59.74
2017-12-11T01:50:36.935Z,59.69
2017-12-11T01:51:39.404Z,59.72
2017-12-11T01:52:41.867Z,59.73
2017-12-11T01:53:44.338Z,59.67
2017-12-11T01:54:46.819Z,59.72
2017-12-11T01:55:49.278Z,59.69
2017-12-11T01:56:51.746Z,59.69
2017-12-11T01:57:54.203Z,59.72
2017-12-11T01:58:56.676Z,59.69
2017-12-11T01:59:59.153Z,59.71
2017-12-11T02:01:01.611Z,59.72
2017-12-11T02:02:04.080Z,59.79
2017-12-11T02:03:06.544Z,59.85
2017-12-11T02:04:09.012Z,59.96
2017-12-11T02:05:11.492Z,60.14
2017-12-11T02:06:13.951Z,60.23
2017-12-11T02:07:16.422Z,60.26
2017-12-11T02:08:18.884Z,60.30
2017-12-11T02:09:21.353Z,60.35
2017-12-11T02:10:23.828Z,60.36
2017-12-11T02:11:26.316Z,60.42
2017-12-11T02:12:28.788Z,60.33
2017-12-11T02:13:31.260Z,60.26
2017-12-11T02:14:33.737Z,60.18
2017-12-11T02:15:36.201Z,60.18
2017-12-11T02:16:38.681Z,60.07
2017-12-11T02:17:41.161Z,59.99
2017-12-11T02:18:43.614Z,60.06
2017-12-11T02:19:46.080Z,60.17
2017-12-11T02:20:48.538Z,60.15
2017-12-11T02:21:51.000Z,60.16
2017-12-11T02:22:53.480Z,60.22
2017-12-11T02:23:55.948Z,60.18
2017-12-11T02:24:58.412Z,60.00
2017-12-11T02:26:00.893Z,59.92
2017-12-11T02:27:03.371Z,59.87
2017-12-11T02:28:05.818Z,59.95
2017-12-11T02:29:08.282Z,59.98
2017-12-11T02:30:10.745Z,59.93
2017-12-11T02:31:13.222Z,60.02
2017-12-11T02:32:15.678Z,59.98
2017-12-11T02:33:18.145Z,59.93
2017-12-11T02:34:20.606Z,60.11
2017-12-11T02:35:23.215Z,60.17
2017-12-11T02:36:25.708Z,60.43
2017-12-11T02:37:28.167Z,60.62
2017-12-11T02:38:30.687Z,60.60
2017-12-11T02:39:33.167Z,60.66
2017-12-11T02:40:35.665Z,60.64
2017-12-11T02:41:38.118Z,60.65
2017-12-11T02:42:40.570Z,60.67
2017-12-11T02:43:43.032Z,60.65
2017-12-11T02:44:45.494Z,60.67
2017-12-11T02:45:47.986Z,60.58
2017-12-11T02:46:50.442Z,60.49
2017-12-11T02:47:52.922Z,60.55
2017-12-11T02:48:55.404Z,60.51
2017-12-11T02:49:57.860Z,60.60
2017-12-11T02:51:00.347Z,60.62
2017-12-11T02:52:02.797Z,60.51
2017-12-11T02:53:05.260Z,60.70
2017-12-11T02:54:07.829Z,60.65
2017-12-11T02:55:10.287Z,60.71
2017-12-11T02:56:12.777Z,60.73
2017-12-11T02:57:15.243Z,60.80
2017-12-11T02:58:17.732Z,60.89
2017-12-11T02:59:20.202Z,60.85
2017-12-11T03:00:22.688Z,60.78
2017-12-11T03:01:25.174Z,60.71
2017-12-11T03:02:27.638Z,60.50
2017-12-11T03:03:30.094Z,60.45
2017-12-11T03:04:32.568Z,60.47
2017-12-11T03:05:35.049Z,60.32
2017-12-11T03:06:37.545Z,60.21
2017-12-11T03:07:39.998Z,60.22
2017-12-11T03:08:42.458Z,60.33
2017-12-11T03:09:44.937Z,60.54
2017-12-11T03:10:47.424Z,60.68
2017-12-11T03:11:49.920Z,60.94
2017-12-11T03:12:52.467Z,60.97
2017-12-11T03:13:54.936Z,61.02
2017-12-11T03:14:57.403Z,60.95
2017-12-11T03:15:59.864Z,60.85
2017-12-11T03:17:02.359Z,60.85
2017-12-11T03:18:04.810Z,60.96
2017-12-11T03:19:08.123Z,60.77
2017-12-11T03:20:10.604Z,60.74
2017-12-11T03:21:13.050Z,60.80
2017-12-11T03:22:15.521Z,60.71
2017-12-11T03:23:17.990Z,60.64
2017-12-11T03:24:20.453Z,60.73
2017-12-11T03:25:22.917Z,60.81
2017-12-11T03:26:25.391Z,60.86
2017-12-11T03:27:27.875Z,60.80
2017-12-11T03:28:30.353Z,60.81
2017-12-11T03:29:32.852Z,60.73
2017-12-11T03:30:35.325Z,60.80
2017-12-11T03:31:37.800Z,60.84
2017-12-11T03:32:40.282Z,60.89
2017-12-11T03:33:42.750Z,60.92
2017-12-11T03:34:45.224Z,60.98
2017-12-11T03:35:47.700Z,61.00
2017-12-11T03:36:50.185Z,60.92
2017-12-11T03:37:52.654Z,60.98
2017-12-11T03:38:55.120Z,60.93
2017-12-11T03:39:57.570Z,60.85
2017-12-11T03:41:00.041Z,60.80
2017-12-11T03:42:02.549Z,60.74
2017-12-11T03:43:05.038Z,60.74
2017-12-11T03:44:07.494Z,60.76
2017-12-11T03:45:09.964Z,60.82
2017-12-11T03:46:12.422Z,60.83
2017-12-11T03:47:14.945Z,60.90
2017-12-11T03:48:17.453Z,61.04
2017-12-11T03:49:19.917Z,61.04
2017-12-11T03:50:22.392Z,60.92
2017-12-11T03:51:24.859Z,60.90
2017-12-11T03:52:27.341Z,60.91
2017-12-11T03:53:29.840Z,60.88
2017-12-11T03:54:32.307Z,60.89
2017-12-11T03:55:34.771Z,60.92
2017-12-11T03:56:37.232Z,60.88
2017-12-11T03:57:39.730Z,60.86
2017-12-11T03:58:42.233Z,60.90
2017-12-11T03:59:44.724Z,60.87
2017-12-11T04:00:47.336Z,60.89
2017-12-11T04:01:49.798Z,60.96
2017-12-11T04:02:52.262Z,60.89
2017-12-11T04:03:54.745Z,60.91
2017-12-11T04:04:57.220Z,60.95
2017-12-11T04:05:59.683Z,60.94
2017-12-11T04:07:02.146Z,60.89
2017-12-11T04:08:04.611Z,60.75
2017-12-11T04:09:07.074Z,60.72
2017-12-11T04:10:09.553Z,60.62
2017-12-11T04:11:12.033Z,60.95
2017-12-11T04:12:14.499Z,60.87
2017-12-11T04:13:16.962Z,60.94
2017-12-11T04:14:19.446Z,60.92
2017-12-11T04:15:21.907Z,60.87
2017-12-11T04:16:24.395Z,60.88
2017-12-11T04:17:26.859Z,60.93
2017-12-11T04:18:29.317Z,61.01
2017-12-11T04:19:31.786Z,61.24
2017-12-11T04:20:34.270Z,61.40
2017-12-11T04:21:36.744Z,61.67
2017-12-11T04:22:39.224Z,61.97
2017-12-11T04:23:41.700Z,62.02
2017-12-11T04:24:44.204Z,61.84
2017-12-11T04:25:46.688Z,61.63
2017-12-11T04:26:49.174Z,61.64
2017-12-11T04:27:51.660Z,61.65
2017-12-11T04:28:54.140Z,61.65
2017-12-11T04:29:56.640Z,61.64
2017-12-11T04:30:59.113Z,61.51
2017-12-11T04:32:01.592Z,61.58
2017-12-11T04:33:04.054Z,61.61
2017-12-11T04:34:06.529Z,61.65
2017-12-11T04:35:09.020Z,61.59
2017-12-11T04:36:11.474Z,61.58
2017-12-11T04:37:13.938Z,61.41
2017-12-11T04:38:16.411Z,61.51
2017-12-11T04:39:18.874Z,61.65
2017-12-11T04:40:21.409Z,61.69
2017-12-11T04:41:23.881Z,61.74
2017-12-11T04:42:26.360Z,61.71
2017-12-11T04:43:28.838Z,61.76
2017-12-11T04:44:31.325Z,61.72
2017-12-11T04:45:33.801Z,61.75
2017-12-11T04:46:36.276Z,61.86
2017-12-11T04:47:38.764Z,61.91
2017-12-11T04:48:41.222Z,61.85
2017-12-11T04:49:43.697Z,61.84
2017-12-11T04:50:46.193Z,61.96
2017-12-11T04:51:48.664Z,62.12
2017-12-11T04:52:51.130Z,62.27
2017-12-11T04:53:53.608Z,62.05
2017-12-11T04:54:56.062Z,62.06
2017-12-11T04:55:58.542Z,62.06
2017-12-11T04:57:00.999Z,61.75
2017-12-11T04:58:03.476Z,61.71
2017-12-11T04:59:05.947Z,61.76
2017-12-11T05:00:08.408Z,61.62
2017-12-11T05:01:10.914Z,61.46
2017-12-11T05:02:13.388Z,61.58
2017-12-11T05:03:15.854Z,61.70
2017-12-11T05:04:18.344Z,61.74
2017-12-11T05:05:20.810Z,61.70
2017-12-11T05:06:23.314Z,61.59
2017-12-11T05:07:25.786Z,61.59
2017-12-11T05:08:28.260Z,61.65
2017-12-11T05:09:30.726Z,61.62
2017-12-11T05:10:33.192Z,61.65
2017-12-11T05:11:35.662Z,61.73
2017-12-11T05:12:38.144Z,61.64
2017-12-11T05:13:40.622Z,61.69
2017-12-11T05:14:43.108Z,61.80
2017-12-11T05:15:45.580Z,62.14
2017-12-11T05:16:48.048Z,62.39
2017-12-11T05:17:50.520Z,62.33
2017-12-11T05:18:52.985Z,62.45
2017-12-11T05:19:55.472Z,62.50
2017-12-11T05:20:57.948Z,62.51
2017-12-11T05:22:00.444Z,62.65
2017-12-11T05:23:02.925Z,62.65
2017-12-11T05:24:05.396Z,62.53
2017-12-11T05:25:07.918Z,62.53
2017-12-11T05:26:10.391Z,62.49
2017-12-11T05:27:12.850Z,62.47
2017-12-11T05:28:15.323Z,62.46
2017-12-11T05:29:17.797Z,62.58
2017-12-11T05:30:20.266Z,62.46
2017-12-11T05:31:22.860Z,62.10
2017-12-11T05:32:25.326Z,61.79
2017-12-11T05:33:27.790Z,61.68
2017-12-11T05:34:30.280Z,61.69
2017-12-11T05:35:32.761Z,61.70
2017-12-11T05:36:35.239Z,61.66
2017-12-11T05:37:37.813Z,61.66
2017-12-11T05:38:40.283Z,62.02
2017-12-11T05:39:42.750Z,61.95
2017-12-11T05:40:45.228Z,61.80
2017-12-11T05:41:47.704Z,61.56
2017-12-11T05:42:50.165Z,61.47
2017-12-11T05:43:52.670Z,61.40
2017-12-11T05:44:55.185Z,61.25
2017-12-11T05:45:57.654Z,61.12
2017-12-11T05:47:00.123Z,61.04
2017-12-11T05:48:02.583Z,61.03
2017-12-11T05:49:05.073Z,61.40
2017-12-11T05:50:07.537Z,61.54
2017-12-11T05:51:10.007Z,61.52
2017-12-11T05:52:12.480Z,61.70
2017-12-11T05:53:14.957Z,61.91
2017-12-11T05:54:17.444Z,61.40
2017-12-11T05:55:19.924Z,61.84
2017-12-11T05:56:22.390Z,62.12
2017-12-11T05:57:24.864Z,62.29
2017-12-11T05:58:27.337Z,62.47
2017-12-11T05:59:29.806Z,62.46
2017-12-11T06:00:32.284Z,62.33
2017-12-11T06:01:34.765Z,62.32
2017-12-11T06:02:37.218Z,62.34
2017-12-11T06:03:39.688Z,62.07
2017-12-11T06:04:42.164Z,61.93
2017-12-11T06:05:44.659Z,61.74
2017-12-11T06:06:47.155Z,61.45
2017-12-11T06:07:49.606Z,61.23
2017-12-11T06:08:52.081Z,60.96
2017-12-11T06:09:54.552Z,60.67
2017-12-11T06:10:57.076Z,60.22
2017-12-11T06:11:59.551Z,59.07
2017-12-11T06:13:02.026Z,59.27
2017-12-11T06:14:04.512Z,59.03
2017-12-11T06:15:06.978Z,58.76
2017-12-11T06:16:09.443Z,58.48
2017-12-11T06:17:11.945Z,58.31
2017-12-11T06:18:14.466Z,58.15
2017-12-11T06:19:16.950Z,58.07
2017-12-11T06:20:19.414Z,57.96
2017-12-11T06:21:21.909Z,57.97
2017-12-11T06:22:24.410Z,57.99
2017-12-11T06:23:26.862Z,58.01
2017-12-11T06:24:29.369Z,58.03
2017-12-11T06:25:31.838Z,58.04
2017-12-11T06:26:34.306Z,58.09
2017-12-11T06:27:36.788Z,58.04
2017-12-11T06:28:39.274Z,58.17
2017-12-11T06:29:41.756Z,57.96
2017-12-11T06:30:44.214Z,56.91
2017-12-11T06:31:46.670Z,57.19
2017-12-11T06:32:49.122Z,57.58
2017-12-11T06:33:51.588Z,57.84
2017-12-11T06:34:54.091Z,57.77
2017-12-11T06:35:56.611Z,57.89
2017-12-11T06:36:59.040Z,57.95
2017-12-11T06:38:01.510Z,57.74
2017-12-11T06:39:03.966Z,57.76
2017-12-11T06:40:06.469Z,57.96
2017-12-11T06:41:08.952Z,58.19
2017-12-11T06:42:11.424Z,58.45
2017-12-11T06:43:13.881Z,58.25
2017-12-11T06:44:16.339Z,58.71
2017-12-11T06:45:18.810Z,58.89
2017-12-11T06:46:21.278Z,58.83
2017-12-11T06:47:23.772Z,58.92
2017-12-11T06:48:26.253Z,59.11
2017-12-11T06:49:28.714Z,59.14
2017-12-11T06:50:31.217Z,59.10
2017-12-11T06:51:33.670Z,59.15
2017-12-11T06:52:36.130Z,59.31
2017-12-11T06:53:38.593Z,59.35
2017-12-11T06:54:41.068Z,59.62
2017-12-11T06:55:43.551Z,59.51
2017-12-11T06:56:46.024Z,59.21
2017-12-11T06:57:48.499Z,56.16
2017-12-11T06:58:50.964Z,56.65
2017-12-11T06:59:53.452Z,56.89
2017-12-11T07:00:55.952Z,55.20
2017-12-11T07:01:58.522Z,54.75
2017-12-11T07:03:01.083Z,53.72
2017-12-11T07:04:03.557Z,53.69
2017-12-11T07:05:06.023Z,54.46
2017-12-11T07:06:08.507Z,54.59
2017-12-11T07:07:10.974Z,54.54
2017-12-11T07:08:13.446Z,54.49
2017-12-11T07:09:15.936Z,53.46
2017-12-11T07:10:18.421Z,53.14
2017-12-11T07:11:20.926Z,53.74
2017-12-11T07:12:23.390Z,54.51
2017-12-11T07:13:25.876Z,54.32
2017-12-11T07:14:28.424Z,54.09
2017-12-11T07:15:30.933Z,53.67
2017-12-11T07:16:33.441Z,53.45
2017-12-11T07:17:35.907Z,53.20
2017-12-11T07:18:38.379Z,51.07
2017-12-11T07:19:40.835Z,50.25
2017-12-11T07:20:43.311Z,49.76
2017-12-11T07:21:45.798Z,49.22
2017-12-11T07:22:48.266Z,48.67
2017-12-11T07:23:50.730Z,48.52
2017-12-11T07:24:53.208Z,48.35
2017-12-11T07:25:55.674Z,48.54
2017-12-11T07:26:58.162Z,48.52
2017-12-11T07:28:00.630Z,48.89
2017-12-11T07:29:03.140Z,48.94
2017-12-11T07:30:05.610Z,49.09
2017-12-11T07:31:08.081Z,48.89
2017-12-11T07:32:10.567Z,48.90
2017-12-11T07:33:13.071Z,48.72
2017-12-11T07:34:15.542Z,48.41
2017-12-11T07:35:18.020Z,48.29
2017-12-11T07:36:20.486Z,48.14
2017-12-11T07:37:22.981Z,47.98
2017-12-11T07:38:25.462Z,48.02
2017-12-11T07:39:27.931Z,47.84
2017-12-11T07:40:30.409Z,47.85
2017-12-11T07:41:32.893Z,47.95
2017-12-11T07:42:35.406Z,47.96
2017-12-11T07:43:37.875Z,47.96
2017-12-11T07:44:40.356Z,48.05
2017-12-11T07:45:42.819Z,48.03
2017-12-11T07:46:45.296Z,48.02
2017-12-11T07:47:47.927Z,48.13
2017-12-11T07:48:50.395Z,48.20
2017-12-11T07:49:52.858Z,48.27
2017-12-11T07:50:55.328Z,48.33
2017-12-11T07:51:58.058Z,48.36
2017-12-11T07:53:00.522Z,48.47
2017-12-11T07:54:02.986Z,48.52
2017-12-11T07:55:05.473Z,48.50
2017-12-11T07:56:07.952Z,48.56
2017-12-11T07:57:10.433Z,48.58
2017-12-11T07:58:12.941Z,48.76
2017-12-11T07:59:15.406Z,48.71
2017-12-11T08:00:17.897Z,48.74
2017-12-11T08:01:20.381Z,48.84
2017-12-11T08:02:22.861Z,48.84
2017-12-11T08:03:25.360Z,48.86
2017-12-11T08:04:27.831Z,48.85
2017-12-11T08:05:30.308Z,48.93
2017-12-11T08:06:32.774Z,49.01
2017-12-11T08:07:35.269Z,49.06
2017-12-11T08:08:37.739Z,49.05
2017-12-11T08:09:40.203Z,49.04
2017-12-11T08:10:42.680Z,49.10
2017-12-11T08:11:45.134Z,49.07
2017-12-11T08:12:47.618Z,49.07
2017-12-11T08:13:50.114Z,49.18
2017-12-11T08:14:52.578Z,49.22
2017-12-11T08:15:55.061Z,49.24
2017-12-11T08:16:57.585Z,49.19
2017-12-11T08:18:00.049Z,49.28
2017-12-11T08:19:02.521Z,49.21
2017-12-11T08:20:04.990Z,49.31
2017-12-11T08:21:07.473Z,49.30
2017-12-11T08:22:09.969Z,49.23
2017-12-11T08:23:12.441Z,49.21
2017-12-11T08:24:14.932Z,49.29
2017-12-11T08:25:17.402Z,49.35
2017-12-11T08:26:19.901Z,49.38
2017-12-11T08:27:22.371Z,49.30
2017-12-11T08:28:24.842Z,49.26
2017-12-11T08:29:27.320Z,49.34
2017-12-11T08:30:29.790Z,49.42
2017-12-11T08:31:32.273Z,49.43
2017-12-11T08:32:34.758Z,49.41
2017-12-11T08:33:37.242Z,49.45
2017-12-11T08:34:39.703Z,49.52
2017-12-11T08:35:42.201Z,49.50
2017-12-11T08:36:44.684Z,49.48
2017-12-11T08:37:47.150Z,49.58
2017-12-11T08:38:49.628Z,49.58
2017-12-11T08:39:52.100Z,49.53
2017-12-11T08:40:54.576Z,49.52
2017-12-11T08:41:57.056Z,49.59
2017-12-11T08:42:59.526Z,49.68
2017-12-11T08:44:02.033Z,49.57
2017-12-11T08:45:04.498Z,49.53
2017-12-11T08:46:06.984Z,49.55
2017-12-11T08:47:09.458Z,49.53
2017-12-11T08:48:11.960Z,49.55
2017-12-11T08:49:14.436Z,49.54
2017-12-11T08:50:16.894Z,49.56
2017-12-11T08:51:19.344Z,49.54
2017-12-11T08:52:21.822Z,49.61
2017-12-11T08:53:24.274Z,49.62
2017-12-11T08:54:26.730Z,49.61
2017-12-11T08:55:29.220Z,49.61
2017-12-11T08:56:31.717Z,49.61
2017-12-11T08:57:34.188Z,49.76
2017-12-11T08:58:36.643Z,49.67
2017-12-11T08:59:39.103Z,49.67
2017-12-11T09:00:41.571Z,49.73
2017-12-11T09:01:44.063Z,49.70
2017-12-11T09:02:46.526Z,49.73
2017-12-11T09:03:49.001Z,49.73
2017-12-11T09:04:51.492Z,49.71
2017-12-11T09:05:53.974Z,49.76
2017-12-11T09:06:56.457Z,49.75
2017-12-11T09:07:58.927Z,49.76
2017-12-11T09:09:01.382Z,49.76
2017-12-11T09:10:03.851Z,49.89
2017-12-11T09:11:06.333Z,49.88
2017-12-11T09:12:08.821Z,49.82
2017-12-11T09:13:11.308Z,49.90
2017-12-11T09:14:13.781Z,49.92
2017-12-11T09:15:16.255Z,49.85
2017-12-11T09:16:18.736Z,49.83
2017-12-11T09:17:21.213Z,49.88
2017-12-11T09:18:23.667Z,49.84
2017-12-11T09:19:26.141Z,49.92
2017-12-11T09:20:28.595Z,49.84
2017-12-11T09:21:31.066Z,49.87
2017-12-11T09:22:33.550Z,49.87
2017-12-11T09:23:36.061Z,49.96
2017-12-11T09:24:38.601Z,49.93
2017-12-11T09:25:41.092Z,49.95
2017-12-11T09:26:43.565Z,49.96
2017-12-11T09:27:46.037Z,49.97
2017-12-11T09:28:48.504Z,50.01
2017-12-11T09:29:50.963Z,50.00
2017-12-11T09:30:53.436Z,50.00
2017-12-11T09:31:55.898Z,49.98
2017-12-11T09:32:58.362Z,49.94
2017-12-11T09:34:00.818Z,49.95
2017-12-11T09:35:03.292Z,49.98
2017-12-11T09:36:05.759Z,49.96
2017-12-11T09:37:08.248Z,49.93
2017-12-11T09:38:10.733Z,49.93
2017-12-11T09:39:13.217Z,49.95
2017-12-11T09:40:15.705Z,50.02
2017-12-11T09:41:18.181Z,49.95
2017-12-11T09:42:20.665Z,49.98
2017-12-11T09:43:23.130Z,49.92
2017-12-11T09:44:25.604Z,49.91
2017-12-11T09:45:28.088Z,49.89
2017-12-11T09:46:30.557Z,49.95
2017-12-11T09:47:33.023Z,49.95
2017-12-11T09:48:35.495Z,49.92
2017-12-11T09:49:37.963Z,49.94
2017-12-11T09:50:41.563Z,49.97
2017-12-11T09:51:44.026Z,50.03
2017-12-11T09:52:46.504Z,49.97
2017-12-11T09:53:48.984Z,49.95
2017-12-11T09:54:51.464Z,49.97
2017-12-11T09:55:53.926Z,49.97
2017-12-11T09:56:56.390Z,49.98
2017-12-11T09:57:58.872Z,49.99
2017-12-11T09:59:01.343Z,49.99
2017-12-11T10:00:03.829Z,50.00
2017-12-11T10:01:06.295Z,50.01
2017-12-11T10:02:08.753Z,50.01
2017-12-11T10:03:11.232Z,49.99
2017-12-11T10:04:13.698Z,50.02
2017-12-11T10:05:16.169Z,50.00
2017-12-11T10:06:18.645Z,50.01
2017-12-11T10:07:21.134Z,50.03
2017-12-11T10:08:23.613Z,50.03
2017-12-11T10:09:26.087Z,50.04
2017-12-11T10:10:28.550Z,50.04
2017-12-11T10:11:31.011Z,50.05
2017-12-11T10:12:33.486Z,50.05
2017-12-11T10:13:35.950Z,50.02
2017-12-11T10:14:38.414Z,50.05
2017-12-11T10:15:40.880Z,50.07
2017-12-11T10:16:43.341Z,50.05
2017-12-11T10:17:45.817Z,50.16
2017-12-11T10:18:48.290Z,50.12
2017-12-11T10:19:50.746Z,50.01
2017-12-11T10:20:53.234Z,49.99
2017-12-11T10:21:55.700Z,50.00
2017-12-11T10:22:58.191Z,50.00
2017-12-11T10:24:00.664Z,49.99
2017-12-11T10:25:03.147Z,50.06
2017-12-11T10:26:05.606Z,50.07
2017-12-11T10:27:08.066Z,49.99
2017-12-11T10:28:10.530Z,49.95
2017-12-11T10:29:12.994Z,49.97
2017-12-11T10:30:15.469Z,49.96
2017-12-11T10:31:17.949Z,49.97
2017-12-11T10:32:20.433Z,49.98
2017-12-11T10:33:22.922Z,49.95
2017-12-11T10:34:25.399Z,49.95
2017-12-11T10:35:27.873Z,49.91
2017-12-11T10:36:30.345Z,49.91
2017-12-11T10:37:32.813Z,49.89
2017-12-11T10:38:35.282Z,49.87
2017-12-11T10:39:37.792Z,49.85
2017-12-11T10:40:40.268Z,49.89
2017-12-11T10:41:42.730Z,49.88
2017-12-11T10:42:45.245Z,49.89
2017-12-11T10:43:47.723Z,49.87
2017-12-11T10:44:50.204Z,49.90
2017-12-11T10:45:52.668Z,49.88
2017-12-11T10:46:55.153Z,49.90
2017-12-11T10:47:57.610Z,49.85
2017-12-11T10:49:00.084Z,49.84
2017-12-11T10:50:02.547Z,49.87
2017-12-11T10:51:05.020Z,49.84
2017-12-11T10:52:07.501Z,49.84
2017-12-11T10:53:09.963Z,49.82
2017-12-11T10:54:12.446Z,49.82
2017-12-11T10:55:14.932Z,49.84
2017-12-11T10:56:17.396Z,49.89
2017-12-11T10:57:19.858Z,49.84
2017-12-11T10:58:22.336Z,49.82
2017-12-11T10:59:24.798Z,49.81
2017-12-11T11:00:27.266Z,49.81
2017-12-11T11:01:29.810Z,49.84
2017-12-11T11:02:32.270Z,49.88
2017-12-11T11:03:34.745Z,49.83
2017-12-11T11:04:37.217Z,49.78
2017-12-11T11:05:39.682Z,49.81
2017-12-11T11:06:42.142Z,49.86
2017-12-11T11:07:44.602Z,49.78
2017-12-11T11:08:47.081Z,49.77
2017-12-11T11:09:49.546Z,49.74
2017-12-11T11:10:52.024Z,49.78
2017-12-11T11:11:54.489Z,49.72
2017-12-11T11:12:56.954Z,49.75
2017-12-11T11:13:59.444Z,49.76
2017-12-11T11:15:01.907Z,49.72
2017-12-11T11:16:04.370Z,49.72
2017-12-11T11:17:06.881Z,49.66
2017-12-11T11:18:09.356Z,49.74
2017-12-11T11:19:11.861Z,49.67
2017-12-11T11:20:14.332Z,49.65
2017-12-11T11:21:16.792Z,49.68
2017-12-11T11:22:19.269Z,49.65
2017-12-11T11:23:21.744Z,49.64
2017-12-11T11:24:24.211Z,49.63
2017-12-11T11:25:26.679Z,49.68
2017-12-11T11:26:29.135Z,49.75
2017-12-11T11:27:31.595Z,49.71
2017-12-11T11:28:34.058Z,49.70
2017-12-11T11:29:36.580Z,49.69
2017-12-11T11:30:39.940Z,49.74
2017-12-11T11:31:42.421Z,49.75
2017-12-11T11:32:44.874Z,49.77
2017-12-11T11:33:47.338Z,49.74
2017-12-11T11:34:49.802Z,49.83
2017-12-11T11:35:52.283Z,49.82
2017-12-11T11:36:54.742Z,49.81
2017-12-11T11:37:57.202Z,49.85
2017-12-11T11:38:59.667Z,49.81
2017-12-11T11:40:02.142Z,49.82
2017-12-11T11:41:04.610Z,49.78
2017-12-11T11:42:07.088Z,49.98
2017-12-11T11:43:09.561Z,49.86
2017-12-11T11:44:12.040Z,49.77
2017-12-11T11:45:14.516Z,49.75
2017-12-11T11:46:16.994Z,49.80
2017-12-11T11:47:19.456Z,49.79
2017-12-11T11:48:21.940Z,49.86
2017-12-11T11:49:24.436Z,49.82
2017-12-11T11:50:27.007Z,49.80
2017-12-11T11:51:29.471Z,49.81
2017-12-11T11:52:31.938Z,49.83
2017-12-11T11:53:34.418Z,49.84
2017-12-11T11:54:36.888Z,49.83
2017-12-11T11:55:39.348Z,49.83
2017-12-11T11:56:41.828Z,49.84
2017-12-11T11:57:44.304Z,49.88
2017-12-11T11:58:46.780Z,49.86
2017-12-11T11:59:49.247Z,49.85
2017-12-11T12:00:51.718Z,49.91
2017-12-11T12:01:54.170Z,49.92
2017-12-11T12:02:56.634Z,49.94
2017-12-11T12:03:59.099Z,49.94
2017-12-11T12:05:01.581Z,49.91
2017-12-11T12:06:04.051Z,49.94
2017-12-11T12:07:06.528Z,49.91
2017-12-11T12:08:09.005Z,49.92
2017-12-11T12:09:11.480Z,49.89
2017-12-11T12:10:13.946Z,49.89
2017-12-11T12:11:16.410Z,49.85
2017-12-11T12:12:18.878Z,49.85
2017-12-11T12:13:21.338Z,49.88
2017-12-11T12:14:23.811Z,49.90
2017-12-11T12:15:26.289Z,49.88
2017-12-11T12:16:28.764Z,49.89
2017-12-11T12:17:31.235Z,49.90
2017-12-11T12:18:33.699Z,49.87
2017-12-11T12:19:36.162Z,49.90
2017-12-11T12:20:38.663Z,49.92
2017-12-11T12:21:41.140Z,49.92
2017-12-11T12:22:43.598Z,49.93
2017-12-11T12:23:46.066Z,49.93
2017-12-11T12:24:48.526Z,49.93
2017-12-11T12:25:51.001Z,49.94
2017-12-11T12:26:53.478Z,49.94
2017-12-11T12:27:55.954Z,49.94
2017-12-11T12:28:58.414Z,49.99
2017-12-11T12:30:00.891Z,50.02
2017-12-11T12:31:04.346Z,50.00
2017-12-11T12:32:06.820Z,50.05
2017-12-11T12:33:09.315Z,50.11
2017-12-11T12:34:11.774Z,50.31
2017-12-11T12:35:14.234Z,50.36
2017-12-11T12:36:16.694Z,50.62
2017-12-11T12:37:19.194Z,51.09
2017-12-11T12:38:21.669Z,50.52
2017-12-11T12:39:24.152Z,50.38
2017-12-11T12:40:26.620Z,50.30
2017-12-11T12:41:29.082Z,49.80
2017-12-11T12:42:31.555Z,49.43
2017-12-11T12:43:34.312Z,49.34
2017-12-11T12:44:36.869Z,49.11
2017-12-11T12:45:39.372Z,48.95
2017-12-11T12:46:41.849Z,48.55
2017-12-11T12:47:44.326Z,48.37
2017-12-11T12:48:46.783Z,48.21
2017-12-11T12:49:49.302Z,48.01
2017-12-11T12:50:51.766Z,47.82
2017-12-11T12:51:54.219Z,47.85
2017-12-11T12:52:56.671Z,47.95
2017-12-11T12:53:59.273Z,47.91
2017-12-11T12:55:01.740Z,47.93
2017-12-11T12:56:04.199Z,47.85
2017-12-11T12:57:06.655Z,47.99
2017-12-11T12:58:09.105Z,48.03
2017-12-11T12:59:11.592Z,48.04
2017-12-11T13:00:14.084Z,48.06
2017-12-11T13:01:16.534Z,48.00
2017-12-11T13:02:18.987Z,47.96
2017-12-11T13:03:21.457Z,47.98
2017-12-11T13:04:23.925Z,47.91
2017-12-11T13:05:26.456Z,47.83
2017-12-11T13:06:28.914Z,47.67
2017-12-11T13:07:31.385Z,47.57
2017-12-11T13:08:33.847Z,47.44
2017-12-11T13:09:36.310Z,47.38
2017-12-11T13:10:38.781Z,47.30
2017-12-11T13:11:41.234Z,47.27
2017-12-11T13:12:43.699Z,47.30
2017-12-11T13:13:46.155Z,47.37
2017-12-11T13:14:48.624Z,47.41
2017-12-11T13:15:51.078Z,47.47
2017-12-11T13:16:53.526Z,47.97
2017-12-11T13:17:55.997Z,48.27
2017-12-11T13:18:58.527Z,48.35
2017-12-11T13:20:01.006Z,48.28
2017-12-11T13:21:03.471Z,48.17
2017-12-11T13:22:05.941Z,47.95
2017-12-11T13:23:08.427Z,47.89
2017-12-11T13:24:10.892Z,47.75